sensor_id;sensor_type;location;lat;lon;timestamp;P1;durP1;ratioP1;P2;durP2;ratioP2
25721;SDS011;13578;53.450;15.496;2024-01-15T00:00:41;12.50;;;10.25;;
25721;SDS011;13578;53.450;15.496;2024-01-15T00:03:42;14.25;;;9.65;;
25721;SDS011;13578;53.450;15.496;2024-01-15T00:06:43;10.32;;;9.32;;
25721;SDS011;13578;53.450;15.496;2024-01-15T00:09:43;15.82;;;9.82;;
25721;SDS011;13578;53.450;15.496;2024-01-15T00:12:44;12.52;;;9.90;;
25721;SDS011;13578;53.450;15.496;2024-01-15T00:15:45;13.13;;;10.68;;
25721;SDS011;13578;53.450;15.496;2024-01-15T00:18:45;19.60;;;11.32;;
25721;SDS011;13578;53.450;15.496;2024-01-15T00:21:46;22.25;;;12.48;;
25721;SDS011;13578;53.450;15.496;2024-01-15T00:24:47;16.25;;;11.20;;
25721;SDS011;13578;53.450;15.496;2024-01-15T00:27:47;16.25;;;11.93;;
25721;SDS011;13578;53.450;15.496;2024-01-15T00:30:48;15.45;;;11.48;;
25721;SDS011;13578;53.450;15.496;2024-01-15T00:33:49;15.10;;;11.45;;
25721;SDS011;13578;53.450;15.496;2024-01-15T00:36:50;20.73;;;12.20;;
25721;SDS011;13578;53.450;15.496;2024-01-15T00:39:50;19.08;;;11.82;;
25721;SDS011;13578;53.450;15.496;2024-01-15T00:42:51;16.55;;;12.45;;
25721;SDS011;13578;53.450;15.496;2024-01-15T00:45:51;17.88;;;12.77;;
25721;SDS011;13578;53.450;15.496;2024-01-15T00:48:52;18.65;;;11.18;;
25721;SDS011;13578;53.450;15.496;2024-01-15T00:51:53;25.42;;;12.68;;
25721;SDS011;13578;53.450;15.496;2024-01-15T00:54:53;20.65;;;12.75;;
25721;SDS011;13578;53.450;15.496;2024-01-15T00:57:54;18.88;;;13.80;;
25721;SDS011;13578;53.450;15.496;2024-01-15T01:00:54;17.73;;;13.05;;
25721;SDS011;13578;53.450;15.496;2024-01-15T01:03:55;19.90;;;12.98;;
25721;SDS011;13578;53.450;15.496;2024-01-15T01:06:56;18.85;;;13.63;;
25721;SDS011;13578;53.450;15.496;2024-01-15T01:09:56;21.08;;;13.98;;
25721;SDS011;13578;53.450;15.496;2024-01-15T01:12:57;18.80;;;13.20;;
25721;SDS011;13578;53.450;15.496;2024-01-15T01:15:58;19.95;;;12.93;;
25721;SDS011;13578;53.450;15.496;2024-01-15T01:18:58;22.63;;;14.82;;
25721;SDS011;13578;53.450;15.496;2024-01-15T01:21:59;24.60;;;14.05;;
25721;SDS011;13578;53.450;15.496;2024-01-15T01:24:59;17.92;;;12.93;;
25721;SDS011;13578;53.450;15.496;2024-01-15T01:28:00;23.00;;;14.48;;
25721;SDS011;13578;53.450;15.496;2024-01-15T01:37:01;24.77;;;14.70;;
25721;SDS011;13578;53.450;15.496;2024-01-15T01:40:02;22.30;;;13.65;;
25721;SDS011;13578;53.450;15.496;2024-01-15T01:43:04;22.58;;;13.10;;
25721;SDS011;13578;53.450;15.496;2024-01-15T01:46:05;19.80;;;14.93;;
25721;SDS011;13578;53.450;15.496;2024-01-15T01:49:06;19.92;;;13.68;;
25721;SDS011;13578;53.450;15.496;2024-01-15T01:52:08;18.75;;;12.75;;
25721;SDS011;13578;53.450;15.496;2024-01-15T01:55:10;23.88;;;14.35;;
25721;SDS011;13578;53.450;15.496;2024-01-15T01:58:12;19.02;;;11.95;;
25721;SDS011;13578;53.450;15.496;2024-01-15T02:01:13;19.48;;;13.52;;
25721;SDS011;13578;53.450;15.496;2024-01-15T02:04:15;19.98;;;13.52;;
25721;SDS011;13578;53.450;15.496;2024-01-15T02:07:17;20.20;;;13.75;;
25721;SDS011;13578;53.450;15.496;2024-01-15T02:10:18;23.83;;;14.18;;
25721;SDS011;13578;53.450;15.496;2024-01-15T02:13:20;17.40;;;11.88;;
25721;SDS011;13578;53.450;15.496;2024-01-15T02:16:21;17.70;;;12.98;;
25721;SDS011;13578;53.450;15.496;2024-01-15T02:19:22;23.20;;;13.43;;
25721;SDS011;13578;53.450;15.496;2024-01-15T02:22:22;24.73;;;13.85;;
25721;SDS011;13578;53.450;15.496;2024-01-15T02:25:23;21.90;;;11.80;;
25721;SDS011;13578;53.450;15.496;2024-01-15T02:28:24;19.35;;;12.65;;
25721;SDS011;13578;53.450;15.496;2024-01-15T02:31:24;21.40;;;11.38;;
25721;SDS011;13578;53.450;15.496;2024-01-15T02:34:25;27.65;;;12.10;;
25721;SDS011;13578;53.450;15.496;2024-01-15T02:37:25;25.92;;;11.63;;
25721;SDS011;13578;53.450;15.496;2024-01-15T02:40:26;17.42;;;10.40;;
25721;SDS011;13578;53.450;15.496;2024-01-15T02:43:27;14.25;;;10.98;;
25721;SDS011;13578;53.450;15.496;2024-01-15T02:46:27;22.05;;;9.82;;
25721;SDS011;13578;53.450;15.496;2024-01-15T02:49:28;21.23;;;9.00;;
25721;SDS011;13578;53.450;15.496;2024-01-15T02:52:29;15.20;;;9.65;;
25721;SDS011;13578;53.450;15.496;2024-01-15T02:55:30;13.90;;;9.35;;
25721;SDS011;13578;53.450;15.496;2024-01-15T02:58:30;21.30;;;8.75;;
25721;SDS011;13578;53.450;15.496;2024-01-15T03:01:31;14.65;;;9.25;;
25721;SDS011;13578;53.450;15.496;2024-01-15T03:04:32;18.25;;;8.73;;
25721;SDS011;13578;53.450;15.496;2024-01-15T03:07:32;14.93;;;8.93;;
25721;SDS011;13578;53.450;15.496;2024-01-15T03:10:33;12.40;;;8.40;;
25721;SDS011;13578;53.450;15.496;2024-01-15T03:13:35;12.43;;;8.60;;
25721;SDS011;13578;53.450;15.496;2024-01-15T03:16:37;22.33;;;8.88;;
25721;SDS011;13578;53.450;15.496;2024-01-15T03:19:38;18.30;;;8.18;;
25721;SDS011;13578;53.450;15.496;2024-01-15T03:22:38;10.60;;;7.90;;
25721;SDS011;13578;53.450;15.496;2024-01-15T03:25:39;14.60;;;7.72;;
25721;SDS011;13578;53.450;15.496;2024-01-15T03:28:39;10.73;;;7.95;;
25721;SDS011;13578;53.450;15.496;2024-01-15T03:31:40;9.85;;;7.80;;
25721;SDS011;13578;53.450;15.496;2024-01-15T03:34:41;10.93;;;8.02;;
25721;SDS011;13578;53.450;15.496;2024-01-15T03:37:41;12.05;;;7.72;;
25721;SDS011;13578;53.450;15.496;2024-01-15T03:40:42;11.13;;;7.45;;
25721;SDS011;13578;53.450;15.496;2024-01-15T03:43:42;17.27;;;7.53;;
25721;SDS011;13578;53.450;15.496;2024-01-15T03:46:43;13.60;;;6.80;;
25721;SDS011;13578;53.450;15.496;2024-01-15T03:49:44;12.48;;;6.65;;
25721;SDS011;13578;53.450;15.496;2024-01-15T03:52:44;15.43;;;6.85;;
25721;SDS011;13578;53.450;15.496;2024-01-15T03:55:45;8.75;;;6.50;;
25721;SDS011;13578;53.450;15.496;2024-01-15T03:58:46;11.30;;;6.93;;
25721;SDS011;13578;53.450;15.496;2024-01-15T04:01:49;21.13;;;6.75;;
25721;SDS011;13578;53.450;15.496;2024-01-15T04:04:51;11.20;;;6.65;;
25721;SDS011;13578;53.450;15.496;2024-01-15T04:07:51;11.30;;;6.60;;
25721;SDS011;13578;53.450;15.496;2024-01-15T04:10:52;9.32;;;6.85;;
25721;SDS011;13578;53.450;15.496;2024-01-15T04:13:52;22.83;;;7.78;;
25721;SDS011;13578;53.450;15.496;2024-01-15T04:16:53;12.70;;;6.82;;
25721;SDS011;13578;53.450;15.496;2024-01-15T04:19:54;15.73;;;6.85;;
25721;SDS011;13578;53.450;15.496;2024-01-15T04:22:55;18.15;;;6.97;;
25721;SDS011;13578;53.450;15.496;2024-01-15T04:25:56;11.18;;;7.25;;
25721;SDS011;13578;53.450;15.496;2024-01-15T04:28:57;13.32;;;7.43;;
25721;SDS011;13578;53.450;15.496;2024-01-15T04:31:59;9.05;;;6.53;;
25721;SDS011;13578;53.450;15.496;2024-01-15T04:34:59;9.98;;;6.38;;
25721;SDS011;13578;53.450;15.496;2024-01-15T04:38:00;23.02;;;7.43;;
25721;SDS011;13578;53.450;15.496;2024-01-15T04:41:00;21.63;;;7.22;;
25721;SDS011;13578;53.450;15.496;2024-01-15T04:44:01;15.38;;;7.15;;
25721;SDS011;13578;53.450;15.496;2024-01-15T04:47:02;7.47;;;6.55;;
25721;SDS011;13578;53.450;15.496;2024-01-15T04:50:04;14.57;;;7.82;;
25721;SDS011;13578;53.450;15.496;2024-01-15T04:53:05;10.23;;;6.90;;
25721;SDS011;13578;53.450;15.496;2024-01-15T04:56:06;16.00;;;6.40;;
25721;SDS011;13578;53.450;15.496;2024-01-15T04:59:06;17.48;;;7.55;;
25721;SDS011;13578;53.450;15.496;2024-01-15T05:02:07;11.98;;;7.90;;
25721;SDS011;13578;53.450;15.496;2024-01-15T05:05:08;12.60;;;6.40;;
25721;SDS011;13578;53.450;15.496;2024-01-15T05:08:08;13.73;;;6.25;;
25721;SDS011;13578;53.450;15.496;2024-01-15T05:11:09;14.23;;;6.95;;
25721;SDS011;13578;53.450;15.496;2024-01-15T05:14:10;10.40;;;7.25;;
25721;SDS011;13578;53.450;15.496;2024-01-15T05:17:11;14.23;;;7.40;;
25721;SDS011;13578;53.450;15.496;2024-01-15T05:20:11;15.30;;;6.68;;
25721;SDS011;13578;53.450;15.496;2024-01-15T05:23:12;10.13;;;7.47;;
25721;SDS011;13578;53.450;15.496;2024-01-15T05:26:13;10.82;;;7.30;;
25721;SDS011;13578;53.450;15.496;2024-01-15T05:29:13;13.40;;;7.85;;
25721;SDS011;13578;53.450;15.496;2024-01-15T05:32:14;19.25;;;8.18;;
25721;SDS011;13578;53.450;15.496;2024-01-15T05:35:15;9.25;;;6.18;;
25721;SDS011;13578;53.450;15.496;2024-01-15T05:38:16;13.65;;;7.68;;
25721;SDS011;13578;53.450;15.496;2024-01-15T05:41:17;17.63;;;7.43;;
25721;SDS011;13578;53.450;15.496;2024-01-15T05:44:18;14.73;;;7.38;;
25721;SDS011;13578;53.450;15.496;2024-01-15T05:47:18;12.25;;;6.38;;
25721;SDS011;13578;53.450;15.496;2024-01-15T05:50:19;11.95;;;6.80;;
25721;SDS011;13578;53.450;15.496;2024-01-15T05:53:20;13.77;;;7.03;;
25721;SDS011;13578;53.450;15.496;2024-01-15T05:56:20;14.63;;;7.28;;
25721;SDS011;13578;53.450;15.496;2024-01-15T05:59:21;17.17;;;6.95;;
25721;SDS011;13578;53.450;15.496;2024-01-15T06:02:22;17.88;;;6.30;;
25721;SDS011;13578;53.450;15.496;2024-01-15T06:05:22;21.02;;;7.28;;
25721;SDS011;13578;53.450;15.496;2024-01-15T06:08:23;22.00;;;6.63;;
25721;SDS011;13578;53.450;15.496;2024-01-15T06:11:29;27.20;;;7.75;;
25721;SDS011;13578;53.450;15.496;2024-01-15T06:14:30;10.40;;;7.00;;
25721;SDS011;13578;53.450;15.496;2024-01-15T06:17:30;18.00;;;7.40;;
25721;SDS011;13578;53.450;15.496;2024-01-15T06:20:31;26.15;;;7.07;;
25721;SDS011;13578;53.450;15.496;2024-01-15T06:23:32;13.63;;;6.88;;
25721;SDS011;13578;53.450;15.496;2024-01-15T06:26:33;16.85;;;7.55;;
25721;SDS011;13578;53.450;15.496;2024-01-15T06:29:33;13.32;;;6.47;;
25721;SDS011;13578;53.450;15.496;2024-01-15T06:32:37;11.30;;;7.25;;
25721;SDS011;13578;53.450;15.496;2024-01-15T06:35:38;12.65;;;6.78;;
25721;SDS011;13578;53.450;15.496;2024-01-15T06:38:38;8.82;;;6.90;;
25721;SDS011;13578;53.450;15.496;2024-01-15T06:41:39;19.02;;;7.15;;
25721;SDS011;13578;53.450;15.496;2024-01-15T06:44:43;11.70;;;6.88;;
25721;SDS011;13578;53.450;15.496;2024-01-15T06:47:43;10.15;;;5.90;;
25721;SDS011;13578;53.450;15.496;2024-01-15T06:50:44;7.20;;;6.18;;
25721;SDS011;13578;53.450;15.496;2024-01-15T06:53:45;15.13;;;6.57;;
25721;SDS011;13578;53.450;15.496;2024-01-15T06:56:46;14.77;;;6.13;;
25721;SDS011;13578;53.450;15.496;2024-01-15T06:59:46;9.13;;;6.55;;
25721;SDS011;13578;53.450;15.496;2024-01-15T07:02:47;7.78;;;6.10;;
25721;SDS011;13578;53.450;15.496;2024-01-15T07:05:47;17.90;;;6.68;;
25721;SDS011;13578;53.450;15.496;2024-01-15T07:08:48;12.27;;;6.60;;
25721;SDS011;13578;53.450;15.496;2024-01-15T07:11:50;11.10;;;6.95;;
25721;SDS011;13578;53.450;15.496;2024-01-15T07:14:50;12.20;;;6.82;;
25721;SDS011;13578;53.450;15.496;2024-01-15T07:17:51;14.88;;;7.18;;
25721;SDS011;13578;53.450;15.496;2024-01-15T07:20:52;19.10;;;6.97;;
25721;SDS011;13578;53.450;15.496;2024-01-15T07:23:52;10.52;;;7.20;;
25721;SDS011;13578;53.450;15.496;2024-01-15T07:26:53;15.82;;;7.10;;
25721;SDS011;13578;53.450;15.496;2024-01-15T07:35:54;11.77;;;6.63;;
25721;SDS011;13578;53.450;15.496;2024-01-15T07:38:55;13.13;;;6.72;;
25721;SDS011;13578;53.450;15.496;2024-01-15T07:41:56;5.80;;;5.22;;
25721;SDS011;13578;53.450;15.496;2024-01-15T07:44:56;17.45;;;6.28;;
25721;SDS011;13578;53.450;15.496;2024-01-15T07:47:57;13.13;;;5.40;;
25721;SDS011;13578;53.450;15.496;2024-01-15T07:50:58;7.50;;;5.93;;
25721;SDS011;13578;53.450;15.496;2024-01-15T07:53:58;7.18;;;5.75;;
25721;SDS011;13578;53.450;15.496;2024-01-15T07:57:00;16.50;;;5.93;;
25721;SDS011;13578;53.450;15.496;2024-01-15T08:00:03;11.65;;;5.28;;
25721;SDS011;13578;53.450;15.496;2024-01-15T08:03:05;8.70;;;5.35;;
25721;SDS011;13578;53.450;15.496;2024-01-15T08:06:06;10.23;;;5.75;;
25721;SDS011;13578;53.450;15.496;2024-01-15T08:09:09;17.63;;;5.80;;
25721;SDS011;13578;53.450;15.496;2024-01-15T08:12:10;14.93;;;5.22;;
25721;SDS011;13578;53.450;15.496;2024-01-15T08:15:11;14.80;;;5.53;;
25721;SDS011;13578;53.450;15.496;2024-01-15T08:18:12;13.70;;;5.70;;
25721;SDS011;13578;53.450;15.496;2024-01-15T08:21:13;13.20;;;6.05;;
25721;SDS011;13578;53.450;15.496;2024-01-15T08:24:14;10.88;;;6.28;;
25721;SDS011;13578;53.450;15.496;2024-01-15T08:27:15;7.10;;;5.20;;
25721;SDS011;13578;53.450;15.496;2024-01-15T08:30:15;9.35;;;5.30;;
25721;SDS011;13578;53.450;15.496;2024-01-15T08:33:16;12.05;;;5.32;;
25721;SDS011;13578;53.450;15.496;2024-01-15T08:36:17;12.48;;;5.47;;
25721;SDS011;13578;53.450;15.496;2024-01-15T08:39:18;13.15;;;5.47;;
25721;SDS011;13578;53.450;15.496;2024-01-15T08:42:19;18.98;;;6.05;;
25721;SDS011;13578;53.450;15.496;2024-01-15T08:45:20;6.30;;;5.13;;
25721;SDS011;13578;53.450;15.496;2024-01-15T08:48:21;8.15;;;6.28;;
25721;SDS011;13578;53.450;15.496;2024-01-15T08:51:22;7.88;;;5.50;;
25721;SDS011;13578;53.450;15.496;2024-01-15T08:54:23;11.95;;;6.03;;
25721;SDS011;13578;53.450;15.496;2024-01-15T08:57:23;16.38;;;5.63;;
25721;SDS011;13578;53.450;15.496;2024-01-15T09:00:24;14.10;;;6.25;;
25721;SDS011;13578;53.450;15.496;2024-01-15T09:03:24;15.70;;;6.32;;
25721;SDS011;13578;53.450;15.496;2024-01-15T09:06:25;8.32;;;6.57;;
25721;SDS011;13578;53.450;15.496;2024-01-15T09:09:26;7.63;;;5.70;;
25721;SDS011;13578;53.450;15.496;2024-01-15T09:12:27;5.40;;;5.00;;
25721;SDS011;13578;53.450;15.496;2024-01-15T09:15:28;13.45;;;5.20;;
25721;SDS011;13578;53.450;15.496;2024-01-15T09:18:28;9.15;;;5.38;;
25721;SDS011;13578;53.450;15.496;2024-01-15T09:21:29;7.88;;;5.38;;
25721;SDS011;13578;53.450;15.496;2024-01-15T09:24:30;10.38;;;5.68;;
25721;SDS011;13578;53.450;15.496;2024-01-15T09:27:31;7.85;;;5.43;;
25721;SDS011;13578;53.450;15.496;2024-01-15T09:30:32;12.90;;;5.28;;
25721;SDS011;13578;53.450;15.496;2024-01-15T09:33:33;9.10;;;5.05;;
25721;SDS011;13578;53.450;15.496;2024-01-15T09:36:38;12.25;;;5.07;;
25721;SDS011;13578;53.450;15.496;2024-01-15T09:39:40;11.43;;;5.15;;
25721;SDS011;13578;53.450;15.496;2024-01-15T09:42:42;13.95;;;5.68;;
25721;SDS011;13578;53.450;15.496;2024-01-15T09:45:45;5.60;;;5.13;;
25721;SDS011;13578;53.450;15.496;2024-01-15T09:48:46;5.45;;;4.47;;
25721;SDS011;13578;53.450;15.496;2024-01-15T09:51:47;12.60;;;5.35;;
25721;SDS011;13578;53.450;15.496;2024-01-15T09:54:47;14.63;;;5.90;;
25721;SDS011;13578;53.450;15.496;2024-01-15T09:57:50;12.30;;;5.40;;
25721;SDS011;13578;53.450;15.496;2024-01-15T10:00:50;8.57;;;5.25;;
25721;SDS011;13578;53.450;15.496;2024-01-15T10:03:52;9.23;;;5.78;;
25721;SDS011;13578;53.450;15.496;2024-01-15T10:06:53;16.67;;;5.32;;
25721;SDS011;13578;53.450;15.496;2024-01-15T10:09:57;10.15;;;4.50;;
25721;SDS011;13578;53.450;15.496;2024-01-15T10:12:58;6.10;;;5.50;;
25721;SDS011;13578;53.450;15.496;2024-01-15T10:16:03;5.97;;;4.93;;
25721;SDS011;13578;53.450;15.496;2024-01-15T10:19:04;5.95;;;5.45;;
25721;SDS011;13578;53.450;15.496;2024-01-15T10:22:05;11.15;;;5.20;;
25721;SDS011;13578;53.450;15.496;2024-01-15T10:25:09;10.18;;;5.05;;
25721;SDS011;13578;53.450;15.496;2024-01-15T10:28:10;5.28;;;4.88;;
25721;SDS011;13578;53.450;15.496;2024-01-15T10:31:13;10.60;;;5.18;;
25721;SDS011;13578;53.450;15.496;2024-01-15T10:34:14;6.70;;;6.18;;
25721;SDS011;13578;53.450;15.496;2024-01-15T10:37:16;7.43;;;4.82;;
25721;SDS011;13578;53.450;15.496;2024-01-15T10:40:16;8.05;;;5.45;;
25721;SDS011;13578;53.450;15.496;2024-01-15T10:43:19;6.30;;;4.80;;
25721;SDS011;13578;53.450;15.496;2024-01-15T10:46:21;5.75;;;5.25;;
25721;SDS011;13578;53.450;15.496;2024-01-15T10:49:22;5.43;;;5.03;;
25721;SDS011;13578;53.450;15.496;2024-01-15T10:52:27;5.85;;;4.93;;
25721;SDS011;13578;53.450;15.496;2024-01-15T10:55:29;5.68;;;5.15;;
25721;SDS011;13578;53.450;15.496;2024-01-15T10:58:33;4.28;;;4.07;;
25721;SDS011;13578;53.450;15.496;2024-01-15T11:01:35;6.88;;;4.80;;
25721;SDS011;13578;53.450;15.496;2024-01-15T11:04:36;5.82;;;5.03;;
25721;SDS011;13578;53.450;15.496;2024-01-15T11:07:38;4.72;;;4.22;;
25721;SDS011;13578;53.450;15.496;2024-01-15T11:10:46;4.47;;;4.13;;
25721;SDS011;13578;53.450;15.496;2024-01-15T11:13:52;4.63;;;4.03;;
25721;SDS011;13578;53.450;15.496;2024-01-15T11:16:56;5.03;;;4.57;;
25721;SDS011;13578;53.450;15.496;2024-01-15T11:19:59;10.13;;;5.53;;
25721;SDS011;13578;53.450;15.496;2024-01-15T11:22:59;6.00;;;4.32;;
25721;SDS011;13578;53.450;15.496;2024-01-15T11:26:00;7.32;;;5.05;;
25721;SDS011;13578;53.450;15.496;2024-01-15T11:29:04;5.30;;;4.75;;
25721;SDS011;13578;53.450;15.496;2024-01-15T11:32:07;6.38;;;5.30;;
25721;SDS011;13578;53.450;15.496;2024-01-15T11:36:17;9.02;;;5.68;;
25721;SDS011;13578;53.450;15.496;2024-01-15T11:42:28;7.53;;;5.47;;
25721;SDS011;13578;53.450;15.496;2024-01-15T11:45:28;5.90;;;5.13;;
25721;SDS011;13578;53.450;15.496;2024-01-15T11:48:32;12.05;;;6.18;;
25721;SDS011;13578;53.450;15.496;2024-01-15T11:51:43;6.65;;;5.97;;
25721;SDS011;13578;53.450;15.496;2024-01-15T11:54:48;10.35;;;5.07;;
25721;SDS011;13578;53.450;15.496;2024-01-15T11:57:57;6.25;;;5.35;;
25721;SDS011;13578;53.450;15.496;2024-01-15T12:01:00;5.85;;;5.35;;
25721;SDS011;13578;53.450;15.496;2024-01-15T12:04:02;5.78;;;5.28;;
25721;SDS011;13578;53.450;15.496;2024-01-15T12:07:02;5.07;;;4.78;;
25721;SDS011;13578;53.450;15.496;2024-01-15T12:10:03;6.40;;;5.88;;
25721;SDS011;13578;53.450;15.496;2024-01-15T12:13:11;6.63;;;5.35;;
25721;SDS011;13578;53.450;15.496;2024-01-15T12:16:13;6.50;;;6.10;;
25721;SDS011;13578;53.450;15.496;2024-01-15T12:19:15;5.28;;;4.97;;
25721;SDS011;13578;53.450;15.496;2024-01-15T12:22:16;6.38;;;5.88;;
25721;SDS011;13578;53.450;15.496;2024-01-15T12:25:17;12.13;;;6.30;;
25721;SDS011;13578;53.450;15.496;2024-01-15T12:28:17;8.88;;;5.85;;
25721;SDS011;13578;53.450;15.496;2024-01-15T12:31:18;6.15;;;5.55;;
25721;SDS011;13578;53.450;15.496;2024-01-15T12:34:19;6.53;;;6.03;;
25721;SDS011;13578;53.450;15.496;2024-01-15T12:37:20;5.80;;;5.30;;
25721;SDS011;13578;53.450;15.496;2024-01-15T12:40:21;6.47;;;5.70;;
25721;SDS011;13578;53.450;15.496;2024-01-15T12:43:23;6.03;;;5.43;;
25721;SDS011;13578;53.450;15.496;2024-01-15T12:46:23;7.30;;;6.60;;
25721;SDS011;13578;53.450;15.496;2024-01-15T12:49:24;13.05;;;7.68;;
25721;SDS011;13578;53.450;15.496;2024-01-15T12:52:29;6.40;;;5.80;;
25721;SDS011;13578;53.450;15.496;2024-01-15T12:55:30;6.03;;;5.55;;
25721;SDS011;13578;53.450;15.496;2024-01-15T12:58:30;8.85;;;5.65;;
25721;SDS011;13578;53.450;15.496;2024-01-15T13:01:31;7.95;;;6.20;;
25721;SDS011;13578;53.450;15.496;2024-01-15T13:04:32;6.20;;;5.00;;
25721;SDS011;13578;53.450;15.496;2024-01-15T13:07:32;5.80;;;5.38;;
25721;SDS011;13578;53.450;15.496;2024-01-15T13:10:33;6.78;;;5.50;;
25721;SDS011;13578;53.450;15.496;2024-01-15T13:13:34;5.97;;;5.55;;
25721;SDS011;13578;53.450;15.496;2024-01-15T13:16:34;5.60;;;5.20;;
25721;SDS011;13578;53.450;15.496;2024-01-15T13:19:35;6.75;;;6.20;;
25721;SDS011;13578;53.450;15.496;2024-01-15T13:22:35;6.30;;;5.80;;
25721;SDS011;13578;53.450;15.496;2024-01-15T13:25:39;6.60;;;5.95;;
25721;SDS011;13578;53.450;15.496;2024-01-15T13:28:39;9.18;;;6.10;;
25721;SDS011;13578;53.450;15.496;2024-01-15T13:31:40;6.05;;;5.10;;
25721;SDS011;13578;53.450;15.496;2024-01-15T13:34:40;6.35;;;5.85;;
25721;SDS011;13578;53.450;15.496;2024-01-15T13:37:41;8.52;;;6.28;;
25721;SDS011;13578;53.450;15.496;2024-01-15T13:40:42;6.75;;;6.13;;
25721;SDS011;13578;53.450;15.496;2024-01-15T13:43:45;5.57;;;5.25;;
25721;SDS011;13578;53.450;15.496;2024-01-15T13:46:48;6.82;;;6.32;;
25721;SDS011;13578;53.450;15.496;2024-01-15T13:49:48;9.40;;;6.65;;
25721;SDS011;13578;53.450;15.496;2024-01-15T13:52:49;10.05;;;6.50;;
25721;SDS011;13578;53.450;15.496;2024-01-15T13:55:50;6.97;;;6.28;;
25721;SDS011;13578;53.450;15.496;2024-01-15T13:58:50;7.43;;;6.43;;
25721;SDS011;13578;53.450;15.496;2024-01-15T14:01:52;5.63;;;5.15;;
25721;SDS011;13578;53.450;15.496;2024-01-15T14:04:52;10.13;;;6.93;;
25721;SDS011;13578;53.450;15.496;2024-01-15T14:07:54;6.68;;;6.03;;
25721;SDS011;13578;53.450;15.496;2024-01-15T14:10:55;8.70;;;5.82;;
25721;SDS011;13578;53.450;15.496;2024-01-15T14:13:57;5.63;;;5.22;;
25721;SDS011;13578;53.450;15.496;2024-01-15T14:16:57;11.63;;;5.97;;
25721;SDS011;13578;53.450;15.496;2024-01-15T14:19:58;6.45;;;5.97;;
25721;SDS011;13578;53.450;15.496;2024-01-15T14:22:59;6.57;;;5.90;;
25721;SDS011;13578;53.450;15.496;2024-01-15T14:25:59;11.20;;;6.97;;
25721;SDS011;13578;53.450;15.496;2024-01-15T14:29:00;8.90;;;6.15;;
25721;SDS011;13578;53.450;15.496;2024-01-15T14:32:01;7.28;;;6.63;;
25721;SDS011;13578;53.450;15.496;2024-01-15T14:35:01;5.55;;;5.25;;
25721;SDS011;13578;53.450;15.496;2024-01-15T14:38:04;15.45;;;6.13;;
25721;SDS011;13578;53.450;15.496;2024-01-15T14:41:04;6.68;;;6.07;;
25721;SDS011;13578;53.450;15.496;2024-01-15T14:44:05;10.07;;;5.93;;
25721;SDS011;13578;53.450;15.496;2024-01-15T14:47:05;7.03;;;6.05;;
25721;SDS011;13578;53.450;15.496;2024-01-15T14:50:07;5.75;;;5.45;;
25721;SDS011;13578;53.450;15.496;2024-01-15T14:53:08;7.05;;;6.22;;
25721;SDS011;13578;53.450;15.496;2024-01-15T14:56:08;10.57;;;6.07;;
25721;SDS011;13578;53.450;15.496;2024-01-15T14:59:09;6.30;;;5.88;;
25721;SDS011;13578;53.450;15.496;2024-01-15T15:02:10;6.47;;;5.75;;
25721;SDS011;13578;53.450;15.496;2024-01-15T15:05:12;8.15;;;6.40;;
25721;SDS011;13578;53.450;15.496;2024-01-15T15:08:13;6.15;;;5.68;;
25721;SDS011;13578;53.450;15.496;2024-01-15T15:11:14;13.30;;;6.07;;
25721;SDS011;13578;53.450;15.496;2024-01-15T15:14:15;6.82;;;6.15;;
25721;SDS011;13578;53.450;15.496;2024-01-15T15:17:15;8.38;;;7.45;;
25721;SDS011;13578;53.450;15.496;2024-01-15T15:20:16;6.32;;;5.82;;
25721;SDS011;13578;53.450;15.496;2024-01-15T15:23:17;9.98;;;6.13;;
25721;SDS011;13578;53.450;15.496;2024-01-15T15:26:18;12.30;;;7.82;;
25721;SDS011;13578;53.450;15.496;2024-01-15T15:29:19;5.78;;;5.35;;
25721;SDS011;13578;53.450;15.496;2024-01-15T15:32:19;6.05;;;5.47;;
25721;SDS011;13578;53.450;15.496;2024-01-15T15:35:20;6.70;;;6.20;;
25721;SDS011;13578;53.450;15.496;2024-01-15T15:38:21;7.03;;;6.22;;
25721;SDS011;13578;53.450;15.496;2024-01-15T15:41:22;10.88;;;5.45;;
25721;SDS011;13578;53.450;15.496;2024-01-15T15:44:25;5.97;;;5.68;;
25721;SDS011;13578;53.450;15.496;2024-01-15T15:47:26;9.20;;;5.55;;
25721;SDS011;13578;53.450;15.496;2024-01-15T15:50:27;6.95;;;6.32;;
25721;SDS011;13578;53.450;15.496;2024-01-15T15:53:27;8.02;;;6.72;;
25721;SDS011;13578;53.450;15.496;2024-01-15T15:56:28;8.63;;;5.68;;
25721;SDS011;13578;53.450;15.496;2024-01-15T15:59:29;6.60;;;6.03;;
25721;SDS011;13578;53.450;15.496;2024-01-15T16:02:29;10.45;;;6.18;;
25721;SDS011;13578;53.450;15.496;2024-01-15T16:05:30;12.68;;;6.55;;
25721;SDS011;13578;53.450;15.496;2024-01-15T16:08:31;7.13;;;6.47;;
25721;SDS011;13578;53.450;15.496;2024-01-15T16:11:31;9.07;;;5.63;;
25721;SDS011;13578;53.450;15.496;2024-01-15T16:14:32;5.88;;;5.50;;
25721;SDS011;13578;53.450;15.496;2024-01-15T16:17:33;23.05;;;9.45;;
25721;SDS011;13578;53.450;15.496;2024-01-15T16:20:33;10.50;;;8.07;;
25721;SDS011;13578;53.450;15.496;2024-01-15T16:23:34;7.43;;;6.78;;
25721;SDS011;13578;53.450;15.496;2024-01-15T16:26:34;8.00;;;7.30;;
25721;SDS011;13578;53.450;15.496;2024-01-15T16:29:35;13.57;;;7.18;;
25721;SDS011;13578;53.450;15.496;2024-01-15T16:32:36;6.80;;;6.20;;
25721;SDS011;13578;53.450;15.496;2024-01-15T16:35:36;7.85;;;7.25;;
25721;SDS011;13578;53.450;15.496;2024-01-15T16:38:37;13.93;;;6.65;;
25721;SDS011;13578;53.450;15.496;2024-01-15T16:41:38;8.02;;;7.32;;
25721;SDS011;13578;53.450;15.496;2024-01-15T16:44:38;18.77;;;10.70;;
25721;SDS011;13578;53.450;15.496;2024-01-15T16:47:39;10.77;;;7.97;;
25721;SDS011;13578;53.450;15.496;2024-01-15T16:50:40;8.48;;;6.45;;
25721;SDS011;13578;53.450;15.496;2024-01-15T16:53:40;7.15;;;6.53;;
25721;SDS011;13578;53.450;15.496;2024-01-15T16:56:41;7.07;;;6.40;;
25721;SDS011;13578;53.450;15.496;2024-01-15T16:59:41;7.35;;;6.53;;
25721;SDS011;13578;53.450;15.496;2024-01-15T17:02:42;6.25;;;5.65;;
25721;SDS011;13578;53.450;15.496;2024-01-15T17:05:43;6.10;;;5.60;;
25721;SDS011;13578;53.450;15.496;2024-01-15T17:08:43;6.60;;;6.10;;
25721;SDS011;13578;53.450;15.496;2024-01-15T17:11:44;6.38;;;5.80;;
25721;SDS011;13578;53.450;15.496;2024-01-15T17:14:44;9.07;;;5.93;;
25721;SDS011;13578;53.450;15.496;2024-01-15T17:17:45;6.15;;;5.65;;
25721;SDS011;13578;53.450;15.496;2024-01-15T17:20:46;9.70;;;8.70;;
25721;SDS011;13578;53.450;15.496;2024-01-15T17:23:47;30.13;;;17.20;;
25721;SDS011;13578;53.450;15.496;2024-01-15T17:26:47;20.85;;;10.57;;
25721;SDS011;13578;53.450;15.496;2024-01-15T17:29:49;33.70;;;19.60;;
25721;SDS011;13578;53.450;15.496;2024-01-15T17:32:51;9.35;;;8.25;;
25721;SDS011;13578;53.450;15.496;2024-01-15T17:35:53;15.20;;;11.05;;
25721;SDS011;13578;53.450;15.496;2024-01-15T17:38:54;7.72;;;6.95;;
25721;SDS011;13578;53.450;15.496;2024-01-15T17:41:57;12.20;;;7.13;;
25721;SDS011;13578;53.450;15.496;2024-01-15T17:44:58;8.52;;;7.55;;
25721;SDS011;13578;53.450;15.496;2024-01-15T17:47:59;6.57;;;6.07;;
25721;SDS011;13578;53.450;15.496;2024-01-15T17:51:00;14.02;;;9.35;;
25721;SDS011;13578;53.450;15.496;2024-01-15T17:54:01;17.63;;;6.55;;
25721;SDS011;13578;53.450;15.496;2024-01-15T17:57:01;12.73;;;8.02;;
25721;SDS011;13578;53.450;15.496;2024-01-15T18:00:02;8.60;;;7.05;;